createdAt,value
2023-02-26T00:00:53.429Z,10.05
2023-02-26T00:03:28.716Z,6.78
2023-02-26T00:06:08.490Z,9.70
2023-02-26T00:08:44.443Z,11.32
2023-02-26T00:11:21.137Z,10.90
2023-02-26T00:13:56.690Z,6.70
2023-02-26T00:16:35.288Z,10.07
2023-02-26T00:19:12.906Z,10.93
2023-02-26T00:21:50.702Z,4.80
2023-02-26T00:24:25.952Z,11.07
2023-02-26T00:27:03.122Z,9.55
2023-02-26T00:29:39.539Z,8.60
2023-02-26T00:32:15.889Z,11.13
2023-02-26T00:34:52.309Z,9.30
2023-02-26T00:37:40.598Z,9.80
2023-02-26T00:40:26.324Z,8.60
2023-02-26T00:43:03.420Z,9.45
2023-02-26T00:45:39.261Z,7.45
2023-02-26T00:48:32.439Z,8.55
2023-02-26T00:51:15.052Z,8.70
2023-02-26T00:53:56.698Z,11.23
2023-02-26T00:56:31.939Z,8.75
2023-02-26T00:59:08.515Z,11.25
2023-02-26T01:01:44.547Z,11.32
2023-02-26T01:04:22.932Z,9.85
2023-02-26T01:07:02.091Z,8.30
2023-02-26T01:09:41.547Z,11.48
2023-02-26T01:12:19.175Z,9.10
2023-02-26T01:14:55.668Z,7.93
2023-02-26T01:17:38.135Z,11.55
2023-02-26T01:20:18.482Z,10.88
2023-02-26T01:22:59.971Z,11.65
2023-02-26T01:25:45.662Z,8.82
2023-02-26T01:28:22.163Z,14.75
2023-02-26T01:31:02.376Z,12.55
2023-02-26T01:33:46.324Z,8.95
2023-02-26T01:36:25.135Z,8.30
2023-02-26T01:39:08.054Z,8.77
2023-02-26T01:41:49.975Z,8.95
2023-02-26T01:44:35.583Z,10.90
2023-02-26T01:47:20.769Z,9.68
2023-02-26T01:49:56.493Z,6.78
2023-02-26T01:53:12.394Z,7.18
2023-02-26T01:55:51.169Z,5.43
2023-02-26T01:58:29.627Z,6.60
2023-02-26T02:01:05.367Z,9.50
2023-02-26T02:03:44.047Z,8.98
2023-02-26T02:06:24.907Z,9.32
2023-02-26T02:09:00.877Z,9.85
2023-02-26T02:11:36.484Z,11.15
2023-02-26T02:14:21.887Z,10.68
2023-02-26T02:17:04.759Z,13.13
2023-02-26T02:20:22.178Z,10.57
2023-02-26T02:23:12.216Z,8.52
2023-02-26T02:26:08.723Z,7.57
2023-02-26T02:29:03.171Z,10.10
2023-02-26T02:31:45.835Z,12.98
2023-02-26T02:34:26.563Z,10.00
2023-02-26T02:37:06.821Z,12.77
2023-02-26T02:39:47.884Z,9.00
2023-02-26T02:42:29.080Z,11.15
2023-02-26T02:45:07.434Z,11.02
2023-02-26T02:47:49.530Z,11.63
2023-02-26T02:50:30.779Z,13.10
2023-02-26T02:53:12.142Z,14.77
2023-02-26T02:55:53.794Z,15.30
2023-02-26T02:58:34.977Z,12.95
2023-02-26T03:01:14.189Z,17.33
2023-02-26T03:03:59.660Z,8.40
2023-02-26T03:06:37.606Z,7.68
2023-02-26T03:09:15.131Z,10.90
2023-02-26T03:11:50.341Z,8.25
2023-02-26T03:14:26.132Z,8.60
2023-02-26T03:17:18.234Z,12.18
2023-02-26T03:20:09.082Z,14.35
2023-02-26T03:22:51.930Z,12.27
2023-02-26T03:25:35.521Z,9.30
2023-02-26T03:28:29.290Z,10.40
2023-02-26T03:31:14.158Z,8.10
2023-02-26T03:33:59.347Z,5.75
2023-02-26T03:36:41.675Z,6.43
2023-02-26T03:39:33.089Z,9.23
2023-02-26T03:42:13.231Z,8.52
2023-02-26T03:45:02.376Z,6.97
2023-02-26T03:47:39.986Z,6.97
2023-02-26T03:50:21.204Z,10.55
2023-02-26T03:53:21.076Z,8.48
2023-02-26T03:56:10.889Z,9.95
2023-02-26T03:59:05.829Z,7.20
2023-02-26T04:02:06.636Z,8.52
2023-02-26T04:04:52.517Z,6.97
2023-02-26T04:07:29.054Z,12.00
2023-02-26T04:10:06.780Z,9.35
2023-02-26T04:12:42.477Z,6.97
2023-02-26T04:15:19.127Z,7.20
2023-02-26T04:17:54.415Z,10.02
2023-02-26T04:20:30.584Z,12.23
2023-02-26T04:23:07.202Z,14.70
2023-02-26T04:25:46.479Z,12.65
2023-02-26T04:28:23.855Z,13.93
2023-02-26T04:31:00.481Z,10.65
2023-02-26T04:33:36.977Z,12.95
2023-02-26T04:36:14.303Z,13.70
2023-02-26T04:38:50.130Z,11.20
2023-02-26T04:41:27.586Z,13.07
2023-02-26T04:44:03.719Z,11.65
2023-02-26T04:46:40.376Z,14.43
2023-02-26T04:49:15.811Z,23.83
2023-02-26T04:51:52.760Z,16.80
2023-02-26T04:54:29.173Z,14.90
2023-02-26T04:57:07.098Z,10.55
2023-02-26T04:59:42.436Z,15.57
2023-02-26T05:02:20.748Z,10.02
2023-02-26T05:04:58.911Z,10.48
2023-02-26T05:07:35.407Z,10.57
2023-02-26T05:10:12.174Z,11.52
2023-02-26T05:12:49.745Z,9.90
2023-02-26T05:15:25.590Z,15.27
2023-02-26T05:18:01.238Z,17.05
2023-02-26T05:20:37.226Z,10.55
2023-02-26T05:23:13.606Z,13.20
2023-02-26T05:25:49.920Z,16.70
2023-02-26T05:28:28.164Z,12.48
2023-02-26T05:31:03.991Z,13.60
2023-02-26T05:33:39.581Z,13.23
2023-02-26T05:36:15.562Z,13.95
2023-02-26T05:38:51.610Z,15.82
2023-02-26T05:41:27.438Z,15.27
2023-02-26T05:44:04.862Z,10.73
2023-02-26T05:46:40.623Z,18.10
2023-02-26T05:49:16.626Z,17.58
2023-02-26T05:51:51.941Z,14.38
2023-02-26T05:54:27.362Z,14.27
2023-02-26T05:57:03.709Z,13.15
2023-02-26T05:59:42.015Z,12.90
2023-02-26T06:02:17.698Z,13.70
2023-02-26T06:04:52.873Z,14.95
2023-02-26T06:07:28.842Z,11.35
2023-02-26T06:10:05.840Z,13.15
2023-02-26T06:12:41.750Z,16.15
2023-02-26T06:15:19.078Z,13.73
2023-02-26T06:17:54.903Z,11.52
2023-02-26T06:20:31.292Z,14.15
2023-02-26T06:23:06.557Z,11.98
2023-02-26T06:25:41.788Z,13.32
2023-02-26T06:28:18.102Z,15.73
2023-02-26T06:30:57.933Z,10.50
2023-02-26T06:33:33.273Z,15.25
2023-02-26T06:36:10.019Z,15.27
2023-02-26T06:38:47.272Z,13.50
2023-02-26T06:41:22.801Z,17.05
2023-02-26T06:43:58.564Z,16.08
2023-02-26T06:46:35.549Z,12.18
2023-02-26T06:49:11.330Z,11.93
2023-02-26T06:51:47.130Z,15.73
2023-02-26T06:54:22.415Z,13.20
2023-02-26T06:56:59.354Z,16.02
2023-02-26T06:59:35.722Z,18.63
2023-02-26T07:02:14.392Z,12.05
2023-02-26T07:04:49.749Z,18.08
2023-02-26T07:07:25.240Z,18.90
2023-02-26T07:10:01.079Z,13.45
2023-02-26T07:12:36.824Z,20.05
2023-02-26T07:15:13.353Z,14.98
2023-02-26T07:17:50.440Z,20.27
2023-02-26T07:20:27.682Z,18.55
2023-02-26T07:23:03.356Z,13.40
2023-02-26T07:25:39.225Z,13.27
2023-02-26T07:28:14.385Z,15.50
2023-02-26T07:30:50.786Z,19.67
2023-02-26T07:33:30.144Z,15.57
2023-02-26T07:36:05.386Z,25.33
2023-02-26T07:38:40.933Z,15.68
2023-02-26T07:41:16.263Z,16.10
2023-02-26T07:43:52.086Z,14.75
2023-02-26T07:46:28.169Z,14.07
2023-02-26T07:49:05.658Z,15.13
2023-02-26T07:51:42.594Z,16.45
2023-02-26T07:54:18.575Z,17.77
2023-02-26T07:56:53.939Z,16.70
2023-02-26T07:59:29.055Z,17.88
2023-02-26T08:02:05.466Z,13.82
2023-02-26T08:04:44.252Z,13.43
2023-02-26T08:07:19.807Z,15.98
2023-02-26T08:09:55.247Z,13.43
2023-02-26T08:12:31.038Z,15.45
2023-02-26T08:15:06.819Z,12.82
2023-02-26T08:17:42.604Z,11.65
2023-02-26T08:20:20.060Z,16.58
2023-02-26T08:22:56.259Z,18.05
2023-02-26T08:25:31.942Z,11.75
2023-02-26T08:28:07.101Z,15.70
2023-02-26T08:30:42.276Z,14.90
2023-02-26T08:33:18.656Z,16.30
2023-02-26T08:35:57.401Z,17.25
2023-02-26T08:38:33.552Z,18.80
2023-02-26T08:41:09.936Z,16.52
2023-02-26T08:43:46.923Z,17.23
2023-02-26T08:46:23.267Z,16.35
2023-02-26T08:48:59.285Z,15.60
2023-02-26T08:51:37.456Z,17.80
2023-02-26T08:54:13.031Z,17.45
2023-02-26T08:56:49.118Z,15.45
2023-02-26T08:59:24.567Z,18.90
2023-02-26T09:01:59.910Z,16.63
2023-02-26T09:04:36.300Z,17.20
2023-02-26T09:07:14.108Z,16.45
2023-02-26T09:09:49.430Z,13.85
2023-02-26T09:12:24.769Z,13.35
2023-02-26T09:15:00.786Z,14.57
2023-02-26T09:17:37.901Z,12.45
2023-02-26T09:20:15.236Z,10.30
2023-02-26T09:22:52.311Z,13.45
2023-02-26T09:25:28.095Z,12.30
2023-02-26T09:28:03.847Z,14.02
2023-02-26T09:30:39.330Z,16.60
2023-02-26T09:33:14.892Z,16.70
2023-02-26T09:35:54.009Z,18.85
2023-02-26T09:38:32.405Z,18.13
2023-02-26T09:41:13.343Z,16.30
2023-02-26T09:44:14.103Z,13.70
2023-02-26T09:47:00.188Z,16.35
2023-02-26T09:49:46.586Z,14.88
2023-02-26T09:52:28.158Z,19.63
2023-02-26T09:55:09.244Z,17.23
2023-02-26T09:57:48.661Z,13.30
2023-02-26T10:00:34.291Z,17.50
2023-02-26T10:03:24.431Z,20.30
2023-02-26T10:06:21.062Z,16.85
2023-02-26T10:09:11.479Z,14.63
2023-02-26T10:11:57.178Z,16.48
2023-02-26T10:14:37.736Z,13.43
2023-02-26T10:17:20.697Z,17.85
2023-02-26T10:20:00.922Z,18.33
2023-02-26T10:22:40.840Z,18.90
2023-02-26T10:25:19.852Z,19.42
2023-02-26T10:28:03.271Z,15.15
2023-02-26T10:30:41.671Z,18.75
2023-02-26T10:33:25.651Z,17.98
2023-02-26T10:36:09.000Z,18.00
2023-02-26T10:38:45.058Z,16.23
2023-02-26T10:41:25.462Z,14.07
2023-02-26T10:44:13.186Z,15.43
2023-02-26T10:46:55.266Z,19.73
2023-02-26T10:49:51.707Z,18.92
2023-02-26T10:52:30.482Z,15.05
2023-02-26T10:55:12.364Z,16.83
2023-02-26T10:57:52.115Z,15.50
2023-02-26T11:00:29.490Z,17.80
2023-02-26T11:03:09.198Z,16.13
2023-02-26T11:05:46.386Z,16.10
2023-02-26T11:08:25.040Z,16.25
2023-02-26T11:11:01.846Z,16.17
2023-02-26T11:13:41.509Z,13.75
2023-02-26T11:16:20.889Z,16.42
2023-02-26T11:19:00.854Z,13.00
2023-02-26T11:21:40.579Z,15.55
2023-02-26T11:24:27.308Z,16.30
2023-02-26T11:27:06.430Z,16.35
2023-02-26T11:29:44.691Z,18.88
2023-02-26T11:32:26.215Z,21.77
2023-02-26T11:35:02.219Z,15.65
2023-02-26T11:37:42.067Z,18.80
2023-02-26T11:40:24.000Z,15.60
2023-02-26T11:43:02.531Z,18.55
2023-02-26T11:45:43.536Z,18.00
2023-02-26T11:48:25.213Z,17.10
2023-02-26T11:51:04.528Z,16.08
2023-02-26T11:53:46.200Z,18.58
2023-02-26T11:56:30.167Z,19.92
2023-02-26T11:59:11.890Z,16.77
2023-02-26T12:01:47.397Z,17.48
2023-02-26T12:04:27.796Z,21.15
2023-02-26T12:07:03.652Z,19.35
2023-02-26T12:09:39.298Z,15.70
2023-02-26T12:12:27.207Z,19.13
2023-02-26T12:15:27.795Z,17.65
2023-02-26T12:18:46.463Z,21.42
2023-02-26T12:21:36.612Z,15.18
2023-02-26T12:24:35.598Z,12.20
2023-02-26T12:27:24.374Z,16.10
2023-02-26T12:30:16.274Z,13.70
2023-02-26T12:33:06.068Z,12.93
2023-02-26T12:35:50.828Z,11.93
2023-02-26T12:38:34.740Z,9.18
2023-02-26T12:41:49.496Z,12.15
2023-02-26T12:44:36.793Z,10.93
2023-02-26T12:47:30.713Z,8.00
2023-02-26T12:50:26.745Z,7.78
2023-02-26T12:53:35.064Z,8.68
2023-02-26T12:56:42.101Z,8.30
2023-02-26T12:59:34.423Z,12.05
2023-02-26T13:02:39.615Z,10.18
2023-02-26T13:05:32.048Z,13.88
2023-02-26T13:08:20.290Z,12.13
2023-02-26T13:11:07.738Z,13.23
2023-02-26T13:13:58.927Z,14.00
2023-02-26T13:16:45.833Z,13.75
2023-02-26T13:19:33.433Z,10.32
2023-02-26T13:22:21.890Z,14.82
2023-02-26T13:25:03.283Z,12.18
2023-02-26T13:27:43.006Z,13.43
2023-02-26T13:30:28.104Z,17.25
2023-02-26T13:33:04.633Z,16.58
2023-02-26T13:35:43.585Z,15.90
2023-02-26T13:38:26.695Z,14.88
2023-02-26T13:41:10.077Z,12.63
2023-02-26T13:44:14.590Z,17.38
2023-02-26T13:47:12.681Z,15.75
2023-02-26T13:49:59.780Z,12.15
2023-02-26T13:52:36.777Z,12.73
2023-02-26T13:55:39.778Z,10.50
2023-02-26T13:58:45.057Z,11.20
2023-02-26T14:01:31.077Z,10.35
2023-02-26T14:04:29.646Z,9.25
2023-02-26T14:07:11.279Z,17.15
2023-02-26T14:10:01.804Z,22.88
2023-02-26T14:12:41.930Z,24.67
2023-02-26T14:15:45.486Z,26.55
2023-02-26T14:18:35.534Z,28.77
2023-02-26T14:21:43.136Z,34.63
2023-02-26T14:24:24.685Z,32.63
2023-02-26T14:27:26.198Z,33.53
2023-02-26T14:30:19.739Z,29.85
2023-02-26T14:32:58.658Z,36.22
2023-02-26T14:35:40.157Z,24.77
2023-02-26T14:38:19.800Z,35.55
2023-02-26T14:40:59.844Z,29.33
2023-02-26T14:43:45.121Z,31.88
2023-02-26T14:46:20.625Z,30.80
2023-02-26T14:48:56.209Z,25.77
2023-02-26T14:51:43.939Z,32.78
2023-02-26T14:54:35.804Z,30.45
2023-02-26T14:57:18.238Z,33.10
2023-02-26T15:00:21.752Z,25.77
2023-02-26T15:03:13.714Z,30.60
2023-02-26T15:06:11.503Z,30.15
2023-02-26T15:08:59.550Z,29.25
2023-02-26T15:11:50.690Z,35.65
2023-02-26T15:14:43.327Z,30.42
2023-02-26T15:17:31.364Z,29.90
2023-02-26T15:20:15.163Z,29.20
2023-02-26T15:23:05.734Z,32.92
2023-02-26T15:25:45.032Z,26.13
2023-02-26T15:28:25.653Z,27.63
2023-02-26T15:31:01.957Z,30.98
2023-02-26T15:33:38.047Z,27.35
2023-02-26T15:36:17.519Z,32.88
2023-02-26T15:38:55.551Z,29.08
2023-02-26T15:41:34.864Z,34.80
2023-02-26T15:44:12.931Z,29.33
2023-02-26T15:46:50.505Z,30.40
2023-02-26T15:49:32.860Z,28.85
2023-02-26T15:52:09.986Z,26.75
2023-02-26T15:54:47.889Z,29.70
2023-02-26T15:57:27.296Z,30.55
2023-02-26T16:00:12.108Z,29.17
2023-02-26T16:02:47.550Z,26.05
2023-02-26T16:05:24.573Z,30.17
2023-02-26T16:08:00.312Z,33.03
2023-02-26T16:10:40.877Z,25.10
2023-02-26T16:13:22.008Z,28.75
2023-02-26T16:15:59.128Z,26.05
2023-02-26T16:18:35.448Z,27.67
2023-02-26T16:21:13.181Z,24.48
2023-02-26T16:23:54.199Z,27.63
2023-02-26T16:26:34.511Z,26.30
2023-02-26T16:29:16.453Z,28.02
2023-02-26T16:31:56.973Z,25.90
2023-02-26T16:34:40.098Z,21.48
2023-02-26T16:37:29.797Z,32.95
2023-02-26T16:40:25.823Z,23.17
2023-02-26T16:43:07.932Z,25.05
2023-02-26T16:45:55.046Z,27.42
2023-02-26T16:48:36.767Z,27.60
2023-02-26T16:51:16.605Z,27.77
2023-02-26T16:53:54.602Z,27.77
2023-02-26T16:56:35.568Z,23.98
2023-02-26T16:59:19.904Z,26.25
2023-02-26T17:02:00.929Z,29.55
2023-02-26T17:04:39.606Z,20.58
2023-02-26T17:07:27.128Z,24.67
2023-02-26T17:10:04.214Z,31.10
2023-02-26T17:12:49.027Z,22.58
2023-02-26T17:15:31.283Z,27.05
2023-02-26T17:18:10.320Z,21.40
2023-02-26T17:20:46.484Z,30.77
2023-02-26T17:23:24.342Z,28.70
2023-02-26T17:26:04.021Z,28.38
2023-02-26T17:28:42.325Z,29.60
2023-02-26T17:31:18.123Z,24.88
2023-02-26T17:33:56.304Z,25.02
2023-02-26T17:36:32.409Z,21.00
2023-02-26T17:39:07.886Z,23.00
2023-02-26T17:41:44.062Z,25.85
2023-02-26T17:44:19.320Z,22.55
2023-02-26T17:46:55.571Z,24.38
2023-02-26T17:49:33.453Z,30.92
2023-02-26T17:52:09.949Z,25.10
2023-02-26T17:54:45.484Z,22.63
2023-02-26T17:57:25.703Z,27.77
2023-02-26T18:00:01.205Z,24.67
2023-02-26T18:02:37.420Z,22.80
2023-02-26T18:05:15.480Z,24.52
2023-02-26T18:07:51.851Z,25.58
2023-02-26T18:10:28.350Z,24.23
2023-02-26T18:13:05.074Z,26.25
2023-02-26T18:15:40.325Z,30.25
2023-02-26T18:18:17.076Z,24.88
2023-02-26T18:20:57.226Z,27.27
2023-02-26T18:23:33.327Z,20.17
2023-02-26T18:26:08.895Z,21.15
2023-02-26T18:28:44.629Z,24.75
2023-02-26T18:31:20.267Z,26.52
2023-02-26T18:33:56.379Z,19.05
2023-02-26T18:36:39.635Z,23.27
2023-02-26T18:39:28.369Z,21.73
2023-02-26T18:42:03.596Z,19.00
2023-02-26T18:44:39.403Z,21.13
2023-02-26T18:47:15.602Z,18.73
2023-02-26T18:49:51.610Z,19.42
2023-02-26T18:52:29.406Z,23.17
2023-02-26T18:55:05.616Z,18.60
2023-02-26T18:57:41.161Z,22.55
2023-02-26T19:00:19.107Z,23.90
2023-02-26T19:02:54.776Z,20.13
2023-02-26T19:05:30.669Z,24.23
2023-02-26T19:08:08.607Z,22.27
2023-02-26T19:10:44.486Z,18.77
2023-02-26T19:13:23.962Z,27.20
2023-02-26T19:15:59.806Z,20.90
2023-02-26T19:18:35.112Z,20.67
2023-02-26T19:21:12.622Z,19.65
2023-02-26T19:23:50.597Z,19.33
2023-02-26T19:26:29.427Z,19.80
2023-02-26T19:29:04.672Z,23.38
2023-02-26T19:31:40.909Z,14.13
2023-02-26T19:34:16.320Z,28.13
2023-02-26T19:36:52.013Z,22.48
2023-02-26T19:39:30.502Z,20.38
2023-02-26T19:42:06.597Z,18.83
2023-02-26T19:44:41.833Z,17.13
2023-02-26T19:47:17.314Z,21.13
2023-02-26T19:49:52.741Z,21.23
2023-02-26T19:52:29.792Z,18.52
2023-02-26T19:55:07.505Z,18.13
2023-02-26T19:57:43.055Z,14.98
2023-02-26T20:00:19.676Z,22.20
2023-02-26T20:02:55.463Z,17.83
2023-02-26T20:05:30.829Z,17.70
2023-02-26T20:08:06.235Z,17.67
2023-02-26T20:10:46.226Z,15.93
2023-02-26T20:13:21.960Z,19.02
2023-02-26T20:15:57.083Z,14.63
2023-02-26T20:18:33.514Z,14.48
2023-02-26T20:21:10.778Z,15.95
2023-02-26T20:23:46.113Z,15.50
2023-02-26T20:26:24.077Z,16.42
2023-02-26T20:28:59.717Z,18.13
2023-02-26T20:31:35.269Z,20.40
2023-02-26T20:34:10.969Z,17.77
2023-02-26T20:36:48.180Z,18.75
2023-02-26T20:39:23.816Z,16.30
2023-02-26T20:42:01.845Z,14.15
2023-02-26T20:44:37.861Z,17.48
2023-02-26T20:47:13.784Z,15.20
2023-02-26T20:49:49.364Z,16.45
2023-02-26T20:52:26.021Z,15.85
2023-02-26T20:55:02.100Z,14.60
2023-02-26T20:57:40.570Z,19.60
2023-02-26T21:00:17.210Z,15.85
2023-02-26T21:02:52.623Z,14.43
2023-02-26T21:05:31.390Z,16.92
2023-02-26T21:08:07.294Z,14.52
2023-02-26T21:10:42.733Z,19.85
2023-02-26T21:13:22.455Z,20.13
2023-02-26T21:15:58.999Z,15.93
2023-02-26T21:18:35.010Z,13.50
2023-02-26T21:21:10.710Z,16.02
2023-02-26T21:23:46.404Z,12.63
2023-02-26T21:26:22.129Z,12.70
2023-02-26T21:29:01.760Z,15.57
2023-02-26T21:31:37.777Z,18.33
2023-02-26T21:34:32.791Z,16.00
2023-02-26T21:37:10.103Z,16.10
2023-02-26T21:39:46.138Z,12.07
2023-02-26T21:42:21.639Z,15.20
2023-02-26T21:44:59.216Z,15.10
2023-02-26T21:47:37.319Z,11.90
2023-02-26T21:50:13.667Z,17.65
2023-02-26T21:52:49.082Z,14.18
2023-02-26T21:55:29.705Z,15.35
2023-02-26T21:58:05.280Z,12.73
2023-02-26T22:00:43.728Z,18.23
2023-02-26T22:03:19.194Z,17.38
2023-02-26T22:05:57.289Z,16.33
2023-02-26T22:08:32.686Z,13.65
2023-02-26T22:11:08.585Z,15.27
2023-02-26T22:13:45.423Z,19.17
2023-02-26T22:16:24.109Z,12.88
2023-02-26T22:18:59.451Z,10.18
2023-02-26T22:21:35.449Z,14.18
2023-02-26T22:24:11.153Z,14.48
2023-02-26T22:26:48.833Z,13.60
2023-02-26T22:29:24.132Z,13.52
2023-02-26T22:32:02.473Z,13.85
2023-02-26T22:34:38.418Z,14.63
2023-02-26T22:37:23.156Z,18.70
2023-02-26T22:39:58.429Z,15.70
2023-02-26T22:42:34.315Z,12.90
2023-02-26T22:45:10.251Z,11.68
2023-02-26T22:47:49.658Z,16.00
2023-02-26T22:50:25.112Z,12.85
2023-02-26T22:53:00.560Z,14.95
2023-02-26T22:55:35.846Z,12.70
2023-02-26T22:58:12.139Z,15.48
2023-02-26T23:00:47.453Z,15.07
2023-02-26T23:03:52.627Z,14.40
2023-02-26T23:06:27.866Z,11.88
2023-02-26T23:09:03.839Z,16.48
2023-02-26T23:11:39.160Z,15.95
2023-02-26T23:14:15.093Z,18.15
2023-02-26T23:16:53.446Z,13.73
2023-02-26T23:19:34.921Z,12.73
2023-02-26T23:22:10.322Z,14.25
2023-02-26T23:24:48.004Z,14.48
2023-02-26T23:27:23.730Z,13.73
2023-02-26T23:29:59.860Z,11.20
2023-02-26T23:32:35.274Z,17.10
2023-02-26T23:35:14.376Z,13.23
2023-02-26T23:37:49.615Z,13.55
2023-02-26T23:40:25.976Z,13.68
2023-02-26T23:43:03.857Z,14.35
2023-02-26T23:45:42.486Z,15.73
2023-02-26T23:48:17.962Z,13.27
2023-02-26T23:50:56.524Z,11.63
2023-02-26T23:53:31.741Z,14.38
2023-02-26T23:56:07.807Z,13.77
2023-02-26T23:58:43.477Z,14.45
